»·PEaware :: N7MR CYMM-CYEG

N7MR :: CYMM-CYEG

FLIGHT INFORMATION

Flight Status: Arrived
Operator: Privately registered:
United States
More flights under this callsign
Pilot: Gavin B. (19371)
Aircraft: PILATUS PC-12 EAGLE
(PC12)
More flights by this aircraft type
Origin: CYMM Ft McMurray
Canada
Destination: CYEG Edmonton Intl
Canada
More flights between these airports :: More routes between these airports
Route:
File this flight plan on PilotEdge
Remarks: SID / STAR FULL ROUTE
Altitude:
(Current/Filed)
22,000ft
Speed:
(Current/Filed)
160kts
Departed: 13-Sep-18 06:22 AM
Arrived: 13-Sep-18 07:26 AM
Distance/Time
Traveled:
217nm/1:03
Distance/Time
To Go:
Arrived

Flight Plot

Page will automatically refresh every two minutes.

Flight plan parsing failed; only flown route is shown


Map Options




Map Legend


Flown Route
Filed Route
Departure Airport
Arrival Airport
Navaid (VOR, NDB)
Fix

Horizontal Profiles

Position Reports

Time Latitude Longitude Heading Altitude Ground
Speed
13-Sep-18 06:13 56.651051 -111.228866 270 1213ft 0kts
13-Sep-18 06:14 56.651051 -111.228867 270 1213ft 0kts
13-Sep-18 06:15 56.651051 -111.228867 270 1213ft 0kts
13-Sep-18 06:16 56.651051 -111.228867 270 1213ft 0kts
13-Sep-18 06:17 56.651051 -111.228867 270 1213ft 0kts
13-Sep-18 06:18 56.651051 -111.228867 270 1213ft 0kts
13-Sep-18 06:19 56.651083 -111.229071 311 1213ft 7kts
13-Sep-18 06:20 56.651364 -111.227368 357 1213ft 13kts
13-Sep-18 06:21 56.651619 -111.220100 91 1213ft 7kts
13-Sep-18 06:22 56.651635 -111.210627 90 1213ft 23kts
13-Sep-18 06:23 56.652637 -111.204974 2 1213ft 14kts
13-Sep-18 06:24 56.652463 -111.247391 263 1828ft 132kts
13-Sep-18 06:25 56.622008 -111.275712 198 3879ft 136kts
13-Sep-18 06:26 56.585288 -111.295732 199 5982ft 141kts
13-Sep-18 06:27 56.547644 -111.316784 199 8057ft 146kts
13-Sep-18 06:28 56.508689 -111.338492 199 10082ft 150kts
13-Sep-18 06:29 56.469040 -111.360584 198 12038ft 151kts
13-Sep-18 06:30 56.428629 -111.383063 200 13926ft 155kts
13-Sep-18 06:31 56.387417 -111.405930 201 15751ft 157kts
13-Sep-18 06:32 56.345511 -111.429144 202 17457ft 160kts
13-Sep-18 06:33 56.302885 -111.452673 203 19093ft 162kts
13-Sep-18 06:34 56.259988 -111.476292 203 20643ft 164kts
13-Sep-18 06:35 56.216392 -111.500240 204 22108ft 167kts
13-Sep-18 06:36 56.163717 -111.529445 202 22210ft 224kts
13-Sep-18 06:37 56.100546 -111.564004 202 22208ft 248kts
13-Sep-18 06:38 56.033089 -111.600690 201 22206ft 257kts
13-Sep-18 06:39 55.964524 -111.637835 201 22205ft 259kts
13-Sep-18 06:40 55.896969 -111.674296 201 22209ft 261kts
13-Sep-18 06:41 55.828279 -111.711241 200 22210ft 262kts
13-Sep-18 06:42 55.758511 -111.748622 201 22210ft 262kts
13-Sep-18 06:43 55.688834 -111.785813 201 22210ft 262kts
13-Sep-18 06:44 55.619091 -111.822902 200 22209ft 262kts
13-Sep-18 06:45 55.549414 -111.859817 200 22212ft 262kts
13-Sep-18 06:46 55.480127 -111.896391 201 22218ft 262kts
13-Sep-18 06:47 55.410244 -111.933145 200 22216ft 262kts
13-Sep-18 06:48 55.340588 -111.969643 201 22209ft 262kts
13-Sep-18 06:49 55.270543 -112.006210 201 22208ft 262kts
13-Sep-18 06:50 55.200725 -112.042532 200 22208ft 263kts
13-Sep-18 06:51 55.130795 -112.078773 200 22208ft 263kts
13-Sep-18 06:52 55.060709 -112.114962 201 22207ft 263kts
13-Sep-18 06:53 54.990631 -112.151013 201 22207ft 263kts
13-Sep-18 06:54 54.920772 -112.186819 201 22206ft 262kts
13-Sep-18 06:55 54.853692 -112.221080 201 22209ft 261kts
13-Sep-18 06:56 54.784286 -112.256405 201 22208ft 260kts
13-Sep-18 06:57 54.715660 -112.291209 201 22208ft 260kts
13-Sep-18 06:58 54.646242 -112.326288 201 22218ft 260kts
13-Sep-18 06:59 54.576931 -112.361191 201 22230ft 260kts
13-Sep-18 07:00 54.507533 -112.396014 201 22234ft 260kts
13-Sep-18 07:01 54.438282 -112.430638 201 22234ft 260kts
13-Sep-18 07:02 54.368786 -112.465259 201 22233ft 260kts
13-Sep-18 07:03 54.299430 -112.499693 201 22233ft 260kts
13-Sep-18 07:04 54.230129 -112.533978 201 22233ft 260kts
13-Sep-18 07:05 54.161066 -112.568028 201 22232ft 259kts
13-Sep-18 07:06 54.091725 -112.602094 201 22232ft 259kts
13-Sep-18 07:07 54.022455 -112.636011 201 22208ft 260kts
13-Sep-18 07:08 53.954685 -112.669076 200 22171ft 261kts
13-Sep-18 07:09 53.886950 -112.702011 200 22132ft 262kts
13-Sep-18 07:10 53.818017 -112.735418 200 22112ft 262kts
13-Sep-18 07:11 53.748381 -112.769043 200 22024ft 264kts
13-Sep-18 07:12 53.673427 -112.805296 199 20641ft 292kts
13-Sep-18 07:13 53.595461 -112.842772 199 19247ft 290kts
13-Sep-18 07:14 53.518407 -112.879539 198 17851ft 288kts
13-Sep-18 07:15 53.441763 -112.915997 198 16456ft 287kts
13-Sep-18 07:16 53.365324 -112.952223 198 15060ft 287kts
13-Sep-18 07:17 53.294535 -112.986019 198 13645ft 245kts
13-Sep-18 07:18 53.226217 -113.017637 197 12253ft 269kts
13-Sep-18 07:19 53.155372 -113.054139 213 10851ft 266kts
13-Sep-18 07:20 53.137657 -113.158891 282 9461ft 254kts
13-Sep-18 07:21 53.153467 -113.268432 284 8113ft 252kts
13-Sep-18 07:22 53.174483 -113.377798 309 6699ft 231kts
13-Sep-18 07:23 53.206460 -113.429190 316 5001ft 105kts
13-Sep-18 07:24 53.223745 -113.460071 315 4301ft 114kts
13-Sep-18 07:25 53.249270 -113.501992 315 3495ft 105kts
13-Sep-18 07:26 53.270568 -113.536676 314 2942ft 113kts
13-Sep-18 07:27 53.288256 -113.565757 316 2386ft 109kts
13-Sep-18 07:28 53.295441 -113.572686 318 2354ft 14kts
13-Sep-18 07:29 53.298587 -113.578094 316 2346ft 18kts
13-Sep-18 07:30 53.301419 -113.579083 314 2344ft 15kts
13-Sep-18 07:31 53.303075 -113.579249 9 2344ft 0kts

Navigation Log

Ident Type
Flight plan parsing failed, navigation log unavailable